createdAt,value
2022-08-01T00:04:13.977Z,9.7
2022-08-01T00:09:49.028Z,9.7
2022-08-01T00:17:38.158Z,9.5
2022-08-01T00:23:13.165Z,9.5
2022-08-01T00:28:49.443Z,9.6
2022-08-01T00:34:23.383Z,9.6
2022-08-01T00:39:58.176Z,9.6
2022-08-01T00:45:33.286Z,9.6
2022-08-01T00:51:08.233Z,9.5
2022-08-01T00:56:43.355Z,9.4
2022-08-01T01:02:18.292Z,9.4
2022-08-01T01:07:53.423Z,9.3
2022-08-01T01:13:28.334Z,9.4
2022-08-01T01:20:09.882Z,9.3
2022-08-01T01:25:44.880Z,9.2
2022-08-01T01:31:19.873Z,9.2
2022-08-01T01:36:54.856Z,9.2
2022-08-01T01:42:29.921Z,9.1
2022-08-01T01:48:04.955Z,9
2022-08-01T01:54:47.014Z,8.9
2022-08-01T02:00:22.043Z,8.9
2022-08-01T02:05:57.054Z,8.9
2022-08-01T02:11:31.985Z,8.9
2022-08-01T02:17:07.088Z,9.1
2022-08-01T02:23:49.208Z,9.3
2022-08-01T02:29:24.225Z,9.5
2022-08-01T02:34:59.157Z,9.6
2022-08-01T02:40:34.216Z,9.7
2022-08-01T02:46:09.225Z,9.8
2022-08-01T02:51:44.234Z,9.9
2022-08-01T02:57:19.286Z,9.8
2022-08-01T03:02:54.269Z,9.8
2022-08-01T03:08:29.276Z,9.7
2022-08-01T03:14:04.798Z,9.7
2022-08-01T03:19:39.358Z,9.7
2022-08-01T03:25:14.293Z,9.6
2022-08-01T03:30:49.218Z,9.6
2022-08-01T03:36:24.233Z,9.6
2022-08-01T03:41:58.775Z,9.6
2022-08-01T03:47:33.815Z,9.6
2022-08-01T03:53:08.709Z,9.6
2022-08-01T03:58:44.774Z,9.5
2022-08-01T04:04:18.759Z,9.5
2022-08-01T04:09:53.796Z,9.5
2022-08-01T04:15:28.844Z,9.4
2022-08-01T04:21:03.792Z,9.4
2022-08-01T04:26:38.874Z,9.4
2022-08-01T04:32:13.826Z,9.3
2022-08-01T04:37:48.859Z,9.2
2022-08-01T04:43:23.789Z,9.3
2022-08-01T04:49:00.062Z,9.4
2022-08-01T04:54:33.905Z,9.3
2022-08-01T05:00:08.875Z,9.4
2022-08-01T05:05:43.900Z,9.5
2022-08-01T05:11:18.885Z,9.5
2022-08-01T05:16:53.912Z,9.7
2022-08-01T05:22:28.828Z,9.7
2022-08-01T05:28:03.997Z,9.9
2022-08-01T05:34:45.995Z,10.2
2022-08-01T05:40:21.028Z,10.3
2022-08-01T05:45:56.029Z,10.4
2022-08-01T05:51:31.057Z,10.6
2022-08-01T05:57:05.996Z,10.7
2022-08-01T06:02:41.156Z,10.7
2022-08-01T06:08:16.148Z,10.9
2022-08-01T06:13:51.055Z,10.9
2022-08-01T06:19:26.077Z,11
2022-08-01T06:25:01.274Z,11.2
2022-08-01T06:30:36.033Z,11.5
2022-08-01T06:36:12.965Z,11.9
2022-08-01T06:41:46.076Z,12.2
2022-08-01T06:47:21.126Z,12.2
2022-08-01T06:52:56.082Z,12.3
2022-08-01T06:58:31.792Z,12.4
2022-08-01T07:04:06.117Z,12.6
2022-08-01T07:09:41.069Z,13.4
2022-08-01T07:15:16.085Z,14.4
2022-08-01T07:20:52.880Z,15.3
2022-08-01T07:26:26.177Z,16.1
2022-08-01T07:32:01.284Z,16.2
2022-08-01T07:37:45.352Z,16.6
2022-08-01T07:43:11.216Z,17.1
2022-08-01T07:48:46.214Z,17.7
2022-08-01T07:54:21.232Z,17.8
2022-08-01T07:59:56.705Z,17.6
2022-08-01T08:04:27.089Z,18
2022-08-01T08:09:59.936Z,17.6
2022-08-01T08:15:33.976Z,17
2022-08-01T08:21:08.718Z,16.7
2022-08-01T08:26:43.727Z,16.9
2022-08-01T08:32:18.782Z,17.6
2022-08-01T08:37:56.062Z,17.2
2022-08-01T08:43:28.941Z,16.4
2022-08-01T08:49:03.819Z,16
2022-08-01T08:54:38.781Z,15.8
2022-08-01T09:00:13.935Z,15.7
2022-08-01T09:05:49.136Z,15.8
2022-08-01T09:11:23.754Z,15.6
2022-08-01T09:16:58.819Z,15.5
2022-08-01T09:22:33.720Z,15.6
2022-08-01T09:28:08.769Z,15.7
2022-08-01T09:33:44.822Z,16
2022-08-01T09:39:18.840Z,15.9
2022-08-01T09:44:54.898Z,15.9
2022-08-01T09:50:28.815Z,15.9
2022-08-01T09:56:03.770Z,16.3
2022-08-01T10:01:39.308Z,16.5
2022-08-01T10:08:23.266Z,16.6
2022-08-01T10:13:56.274Z,16.9
2022-08-01T10:19:30.885Z,17
2022-08-01T10:25:06.057Z,16.8
2022-08-01T10:30:41.008Z,16.9
2022-08-01T10:36:15.958Z,16.9
2022-08-01T10:41:50.915Z,16.9
2022-08-01T10:47:26.844Z,16.9
2022-08-01T10:53:05.593Z,16.6
2022-08-01T10:58:42.312Z,16.5
2022-08-01T11:04:15.953Z,16.5
2022-08-01T11:09:51.369Z,16.4
2022-08-01T11:15:29.535Z,16.2
2022-08-01T11:22:02.558Z,16.1
2022-08-01T11:27:37.632Z,16
2022-08-01T11:33:12.608Z,16
2022-08-01T11:38:47.608Z,16
2022-08-01T11:44:24.801Z,16.1
2022-08-01T11:49:57.620Z,16.3
2022-08-01T11:56:42.973Z,16.3
2022-08-01T12:02:14.918Z,16.3
2022-08-01T12:07:49.749Z,16.3
2022-08-01T12:13:24.731Z,16.3
2022-08-01T12:18:59.733Z,16.5
2022-08-01T12:24:34.811Z,16.3
2022-08-01T12:30:09.855Z,16.4
2022-08-01T12:35:44.812Z,16.6
2022-08-01T12:41:19.763Z,16.9
2022-08-01T12:46:54.790Z,17.2
2022-08-01T12:53:39.788Z,17.3
2022-08-01T13:00:18.546Z,17.4
2022-08-01T13:05:53.534Z,17.6
2022-08-01T13:11:28.498Z,17.8
2022-08-01T13:17:03.520Z,17.9
2022-08-01T13:22:38.504Z,17.9
2022-08-01T13:28:13.526Z,18
2022-08-01T13:34:55.700Z,17.8
2022-08-01T13:40:30.640Z,18
2022-08-01T13:46:05.883Z,18
2022-08-01T13:52:47.854Z,18.2
2022-08-01T13:58:22.790Z,18.3
2022-08-01T14:03:57.848Z,18.3
2022-08-01T14:09:32.810Z,18.2
2022-08-01T14:16:14.965Z,18.1
2022-08-01T14:21:50.453Z,18
2022-08-01T14:27:24.436Z,17.9
2022-08-01T14:33:00.516Z,17.8
2022-08-01T14:38:34.617Z,17.8
2022-08-01T14:44:09.439Z,17.5
2022-08-01T14:49:45.608Z,17.4
2022-08-01T14:55:19.477Z,17.3
2022-08-01T15:00:58.654Z,17.3
2022-08-01T15:06:29.515Z,17.3
2022-08-01T15:12:04.857Z,17.4
2022-08-01T15:17:39.479Z,17.4
2022-08-01T15:23:14.546Z,17.5
2022-08-01T15:28:49.541Z,17.7
2022-08-01T15:34:24.483Z,17.9
2022-08-01T15:39:59.581Z,18
2022-08-01T15:45:48.483Z,17.7
2022-08-01T15:51:09.595Z,17.4
2022-08-01T15:56:44.552Z,17.3
2022-08-01T16:02:19.826Z,17.3
2022-08-01T16:07:59.718Z,17.1
2022-08-01T16:13:29.556Z,17.2
2022-08-01T16:20:11.650Z,17.3
2022-08-01T16:25:46.696Z,17.4
2022-08-01T16:31:30.385Z,17.3
2022-08-01T16:36:57.195Z,17.2
2022-08-01T16:42:31.827Z,17.1
2022-08-01T16:48:06.824Z,17
2022-08-01T16:53:41.770Z,16.9
2022-08-01T16:59:16.774Z,16.8
2022-08-01T17:04:51.847Z,16.7
2022-08-01T17:10:26.862Z,16.6
2022-08-01T17:16:01.799Z,16.5
2022-08-01T17:21:41.166Z,16.3
2022-08-01T17:27:13.381Z,16.3
2022-08-01T17:32:47.267Z,16.3
2022-08-01T17:38:21.740Z,16.3
2022-08-01T17:43:56.792Z,16.2
2022-08-01T17:49:52.168Z,16.1
2022-08-01T17:55:06.317Z,16
2022-08-01T18:00:41.323Z,15.9
2022-08-01T18:06:16.302Z,15.8
2022-08-01T18:11:51.260Z,15.7
2022-08-01T18:18:34.199Z,15.6
2022-08-01T18:24:08.427Z,15.4
2022-08-01T18:29:47.143Z,15.2
2022-08-01T18:35:18.462Z,14.9
2022-08-01T18:42:00.566Z,14.8
2022-08-01T18:47:35.518Z,14.7
2022-08-01T18:53:10.670Z,14.5
2022-08-01T18:58:45.595Z,14.3
2022-08-01T19:04:20.631Z,14.2
2022-08-01T19:09:55.570Z,14.1
2022-08-01T19:15:30.584Z,14
2022-08-01T19:23:19.322Z,13.8
2022-08-01T19:28:54.306Z,13.7
2022-08-01T19:34:29.308Z,13.7
2022-08-01T19:40:05.963Z,13.7
2022-08-01T19:45:39.379Z,13.6
2022-08-01T19:51:14.351Z,13.4
2022-08-01T19:56:49.361Z,13.2
2022-08-01T20:02:24.373Z,13.1
2022-08-01T20:07:59.337Z,13
2022-08-01T20:13:36.968Z,12.9
2022-08-01T20:19:09.404Z,12.9
2022-08-01T20:25:51.502Z,12.7
2022-08-01T20:31:28.530Z,12.6
2022-08-01T20:37:01.569Z,12.5
2022-08-01T20:43:44.129Z,12.4
2022-08-01T20:49:18.734Z,12.4
2022-08-01T20:54:53.612Z,12.4
2022-08-01T21:00:28.751Z,12.3
2022-08-01T21:06:03.599Z,12.3
2022-08-01T21:11:38.679Z,12.3
2022-08-01T21:17:13.853Z,12.2
2022-08-01T21:22:48.681Z,12.2
2022-08-01T21:29:30.303Z,12.2
2022-08-01T21:35:05.262Z,12.2
2022-08-01T21:40:40.331Z,12.2
2022-08-01T21:46:15.302Z,12.2
2022-08-01T21:51:52.068Z,12.3
2022-08-01T21:57:25.279Z,12.2
2022-08-01T22:03:04.195Z,12.2
2022-08-01T22:08:35.309Z,12.2
2022-08-01T22:14:10.369Z,12.3
2022-08-01T22:19:47.683Z,12.3
2022-08-01T22:25:20.448Z,12.2
2022-08-01T22:30:55.510Z,12.3
2022-08-01T22:36:30.431Z,12.3
2022-08-01T22:42:05.429Z,12.3
2022-08-01T22:47:40.601Z,12.3
2022-08-01T22:53:15.366Z,12.4
2022-08-01T22:58:50.420Z,12.4
2022-08-01T23:04:33.023Z,12.4
2022-08-01T23:10:00.346Z,12.5
2022-08-01T23:15:35.679Z,12.5
2022-08-01T23:21:10.376Z,12.6
2022-08-01T23:26:45.381Z,12.6
2022-08-01T23:32:20.472Z,12.6
2022-08-01T23:37:55.555Z,12.6
2022-08-01T23:43:30.437Z,12.6
2022-08-01T23:49:05.607Z,12.6
2022-08-01T23:54:40.982Z,12.7
